sensor_id;sensor_type;location;lat;lon;timestamp;P1;durP1;ratioP1;P2;durP2;ratioP2
75542;SDS011;64129;53.508;10.476;2023-02-20T00:00:30;4.72;;;1.20;;
75542;SDS011;64129;53.508;10.476;2023-02-20T00:02:59;4.55;;;1.15;;
75542;SDS011;64129;53.508;10.476;2023-02-20T00:05:25;3.45;;;1.27;;
75542;SDS011;64129;53.508;10.476;2023-02-20T00:07:52;3.83;;;1.67;;
75542;SDS011;64129;53.508;10.476;2023-02-20T00:10:18;3.53;;;1.05;;
75542;SDS011;64129;53.508;10.476;2023-02-20T00:12:45;1.98;;;1.45;;
75542;SDS011;64129;53.508;10.476;2023-02-20T00:15:14;3.38;;;1.65;;
75542;SDS011;64129;53.508;10.476;2023-02-20T00:17:44;6.13;;;1.50;;
75542;SDS011;64129;53.508;10.476;2023-02-20T00:20:15;2.55;;;1.60;;
75542;SDS011;64129;53.508;10.476;2023-02-20T00:22:44;3.03;;;1.23;;
75542;SDS011;64129;53.508;10.476;2023-02-20T00:25:10;2.28;;;1.55;;
75542;SDS011;64129;53.508;10.476;2023-02-20T00:27:37;2.88;;;1.00;;
75542;SDS011;64129;53.508;10.476;2023-02-20T00:30:03;3.33;;;1.75;;
75542;SDS011;64129;53.508;10.476;2023-02-20T00:32:30;2.85;;;2.22;;
75542;SDS011;64129;53.508;10.476;2023-02-20T00:34:59;4.97;;;2.00;;
75542;SDS011;64129;53.508;10.476;2023-02-20T00:37:26;8.32;;;2.08;;
75542;SDS011;64129;53.508;10.476;2023-02-20T00:39:53;1.92;;;1.45;;
75542;SDS011;64129;53.508;10.476;2023-02-20T00:42:19;2.80;;;1.48;;
75542;SDS011;64129;53.508;10.476;2023-02-20T00:44:46;2.55;;;1.55;;
75542;SDS011;64129;53.508;10.476;2023-02-20T00:47:12;6.00;;;2.47;;
75542;SDS011;64129;53.508;10.476;2023-02-20T00:49:39;5.00;;;2.67;;
75542;SDS011;64129;53.508;10.476;2023-02-20T00:52:12;4.03;;;2.63;;
75542;SDS011;64129;53.508;10.476;2023-02-20T00:54:40;3.70;;;2.55;;
75542;SDS011;64129;53.508;10.476;2023-02-20T00:57:07;3.15;;;2.45;;
75542;SDS011;64129;53.508;10.476;2023-02-20T00:59:33;4.45;;;2.53;;
75542;SDS011;64129;53.508;10.476;2023-02-20T01:02:00;8.40;;;3.00;;
75542;SDS011;64129;53.508;10.476;2023-02-20T01:04:26;5.43;;;2.70;;
75542;SDS011;64129;53.508;10.476;2023-02-20T01:06:53;5.13;;;3.08;;
75542;SDS011;64129;53.508;10.476;2023-02-20T01:09:19;5.07;;;2.92;;
75542;SDS011;64129;53.508;10.476;2023-02-20T01:11:46;4.40;;;2.70;;
75542;SDS011;64129;53.508;10.476;2023-02-20T01:14:13;5.93;;;2.90;;
75542;SDS011;64129;53.508;10.476;2023-02-20T01:16:43;4.80;;;2.30;;
75542;SDS011;64129;53.508;10.476;2023-02-20T01:19:11;4.75;;;2.60;;
75542;SDS011;64129;53.508;10.476;2023-02-20T01:21:37;8.57;;;3.63;;
75542;SDS011;64129;53.508;10.476;2023-02-20T01:24:04;5.43;;;3.13;;
75542;SDS011;64129;53.508;10.476;2023-02-20T01:26:30;6.07;;;3.30;;
75542;SDS011;64129;53.508;10.476;2023-02-20T01:28:57;4.28;;;3.03;;
75542;SDS011;64129;53.508;10.476;2023-02-20T01:31:23;5.10;;;2.55;;
75542;SDS011;64129;53.508;10.476;2023-02-20T01:33:50;4.35;;;3.10;;
75542;SDS011;64129;53.508;10.476;2023-02-20T01:36:16;5.93;;;3.47;;
75542;SDS011;64129;53.508;10.476;2023-02-20T01:38:43;6.82;;;3.05;;
75542;SDS011;64129;53.508;10.476;2023-02-20T01:41:09;4.00;;;2.35;;
75542;SDS011;64129;53.508;10.476;2023-02-20T01:43:37;4.80;;;3.33;;
75542;SDS011;64129;53.508;10.476;2023-02-20T01:49:09;7.70;;;3.33;;
75542;SDS011;64129;53.508;10.476;2023-02-20T01:51:43;3.83;;;2.55;;
75542;SDS011;64129;53.508;10.476;2023-02-20T01:54:16;6.03;;;3.00;;
75542;SDS011;64129;53.508;10.476;2023-02-20T01:56:47;3.55;;;2.20;;
75542;SDS011;64129;53.508;10.476;2023-02-20T01:59:15;4.50;;;2.50;;
75542;SDS011;64129;53.508;10.476;2023-02-20T02:01:43;4.50;;;2.40;;
75542;SDS011;64129;53.508;10.476;2023-02-20T02:04:10;3.80;;;2.90;;
75542;SDS011;64129;53.508;10.476;2023-02-20T02:06:39;3.42;;;1.80;;
75542;SDS011;64129;53.508;10.476;2023-02-20T02:09:12;7.18;;;2.50;;
75542;SDS011;64129;53.508;10.476;2023-02-20T02:11:49;4.65;;;2.55;;
75542;SDS011;64129;53.508;10.476;2023-02-20T02:14:15;4.70;;;2.45;;
75542;SDS011;64129;53.508;10.476;2023-02-20T02:16:51;4.45;;;2.40;;
75542;SDS011;64129;53.508;10.476;2023-02-20T02:22:59;3.05;;;2.20;;
75542;SDS011;64129;53.508;10.476;2023-02-20T02:28:49;3.08;;;2.10;;
75542;SDS011;64129;53.508;10.476;2023-02-20T02:40:18;4.68;;;3.03;;
75542;SDS011;64129;53.508;10.476;2023-02-20T02:42:59;3.95;;;2.72;;
75542;SDS011;64129;53.508;10.476;2023-02-20T02:45:50;3.35;;;1.98;;
75542;SDS011;64129;53.508;10.476;2023-02-20T02:48:56;8.90;;;2.40;;
75542;SDS011;64129;53.508;10.476;2023-02-20T02:51:18;2.95;;;1.77;;
75542;SDS011;64129;53.508;10.476;2023-02-20T02:54:04;5.82;;;2.30;;
75542;SDS011;64129;53.508;10.476;2023-02-20T02:56:33;2.38;;;1.42;;
75542;SDS011;64129;53.508;10.476;2023-02-20T02:59:01;3.63;;;2.10;;
75542;SDS011;64129;53.508;10.476;2023-02-20T03:01:29;5.43;;;2.25;;
75542;SDS011;64129;53.508;10.476;2023-02-20T03:03:58;3.72;;;2.42;;
75542;SDS011;64129;53.508;10.476;2023-02-20T03:06:27;5.75;;;2.53;;
75542;SDS011;64129;53.508;10.476;2023-02-20T03:09:06;3.30;;;2.08;;
75542;SDS011;64129;53.508;10.476;2023-02-20T03:11:37;5.38;;;2.97;;
75542;SDS011;64129;53.508;10.476;2023-02-20T03:14:10;3.28;;;2.13;;
75542;SDS011;64129;53.508;10.476;2023-02-20T03:20:07;3.33;;;2.05;;
75542;SDS011;64129;53.508;10.476;2023-02-20T03:22:38;6.57;;;2.67;;
75542;SDS011;64129;53.508;10.476;2023-02-20T03:27:57;4.10;;;2.65;;
75542;SDS011;64129;53.508;10.476;2023-02-20T03:30:29;6.63;;;3.55;;
75542;SDS011;64129;53.508;10.476;2023-02-20T03:33:09;5.53;;;3.10;;
75542;SDS011;64129;53.508;10.476;2023-02-20T03:36:02;6.43;;;3.60;;
75542;SDS011;64129;53.508;10.476;2023-02-20T03:38:53;4.28;;;2.78;;
75542;SDS011;64129;53.508;10.476;2023-02-20T03:41:46;3.60;;;2.70;;
75542;SDS011;64129;53.508;10.476;2023-02-20T03:44:36;4.82;;;2.90;;
75542;SDS011;64129;53.508;10.476;2023-02-20T03:47:03;4.35;;;3.10;;
75542;SDS011;64129;53.508;10.476;2023-02-20T03:49:35;5.38;;;3.08;;
75542;SDS011;64129;53.508;10.476;2023-02-20T03:52:07;3.72;;;2.42;;
75542;SDS011;64129;53.508;10.476;2023-02-20T03:54:38;3.53;;;2.63;;
75542;SDS011;64129;53.508;10.476;2023-02-20T03:57:08;6.43;;;3.50;;
75542;SDS011;64129;53.508;10.476;2023-02-20T03:59:49;8.35;;;3.60;;
75542;SDS011;64129;53.508;10.476;2023-02-20T04:02:21;4.75;;;3.53;;
75542;SDS011;64129;53.508;10.476;2023-02-20T04:04:52;5.20;;;3.40;;
75542;SDS011;64129;53.508;10.476;2023-02-20T04:07:26;3.47;;;2.45;;
75542;SDS011;64129;53.508;10.476;2023-02-20T04:09:59;3.53;;;2.60;;
75542;SDS011;64129;53.508;10.476;2023-02-20T04:12:33;4.97;;;3.33;;
75542;SDS011;64129;53.508;10.476;2023-02-20T04:15:03;5.22;;;2.92;;
75542;SDS011;64129;53.508;10.476;2023-02-20T04:17:46;6.72;;;3.70;;
75542;SDS011;64129;53.508;10.476;2023-02-20T04:20:15;7.50;;;3.80;;
75542;SDS011;64129;53.508;10.476;2023-02-20T04:22:54;5.50;;;3.13;;
75542;SDS011;64129;53.508;10.476;2023-02-20T04:25:32;4.97;;;2.83;;
75542;SDS011;64129;53.508;10.476;2023-02-20T04:28:06;6.13;;;4.32;;
75542;SDS011;64129;53.508;10.476;2023-02-20T04:30:43;5.78;;;3.42;;
75542;SDS011;64129;53.508;10.476;2023-02-20T04:33:11;9.48;;;3.80;;
75542;SDS011;64129;53.508;10.476;2023-02-20T04:35:39;5.55;;;3.35;;
75542;SDS011;64129;53.508;10.476;2023-02-20T04:38:06;5.15;;;2.67;;
75542;SDS011;64129;53.508;10.476;2023-02-20T04:40:34;5.93;;;4.10;;
75542;SDS011;64129;53.508;10.476;2023-02-20T04:43:01;5.53;;;3.65;;
75542;SDS011;64129;53.508;10.476;2023-02-20T04:45:28;5.10;;;3.13;;
75542;SDS011;64129;53.508;10.476;2023-02-20T04:47:55;5.95;;;4.10;;
75542;SDS011;64129;53.508;10.476;2023-02-20T04:50:26;6.25;;;3.50;;
75542;SDS011;64129;53.508;10.476;2023-02-20T04:52:55;5.63;;;3.03;;
75542;SDS011;64129;53.508;10.476;2023-02-20T04:55:23;7.32;;;4.35;;
75542;SDS011;64129;53.508;10.476;2023-02-20T04:57:52;5.80;;;4.03;;
75542;SDS011;64129;53.508;10.476;2023-02-20T05:00:21;9.88;;;5.00;;
75542;SDS011;64129;53.508;10.476;2023-02-20T05:02:49;7.03;;;4.85;;
75542;SDS011;64129;53.508;10.476;2023-02-20T05:05:17;5.47;;;3.20;;
75542;SDS011;64129;53.508;10.476;2023-02-20T05:07:53;6.88;;;3.88;;
75542;SDS011;64129;53.508;10.476;2023-02-20T05:10:24;6.97;;;3.92;;
75542;SDS011;64129;53.508;10.476;2023-02-20T05:12:51;6.85;;;4.07;;
75542;SDS011;64129;53.508;10.476;2023-02-20T05:15:18;8.90;;;5.10;;
75542;SDS011;64129;53.508;10.476;2023-02-20T05:17:45;7.80;;;4.10;;
75542;SDS011;64129;53.508;10.476;2023-02-20T05:20:12;10.38;;;4.95;;
75542;SDS011;64129;53.508;10.476;2023-02-20T05:22:39;8.18;;;4.80;;
75542;SDS011;64129;53.508;10.476;2023-02-20T05:25:06;6.57;;;4.00;;
75542;SDS011;64129;53.508;10.476;2023-02-20T05:27:33;8.15;;;4.25;;
75542;SDS011;64129;53.508;10.476;2023-02-20T05:29:59;6.85;;;4.15;;
75542;SDS011;64129;53.508;10.476;2023-02-20T05:32:27;8.00;;;5.60;;
75542;SDS011;64129;53.508;10.476;2023-02-20T05:37:22;7.20;;;4.30;;
75542;SDS011;64129;53.508;10.476;2023-02-20T05:39:51;7.38;;;4.47;;
75542;SDS011;64129;53.508;10.476;2023-02-20T05:42:17;11.80;;;6.15;;
75542;SDS011;64129;53.508;10.476;2023-02-20T05:44:44;9.10;;;4.60;;
75542;SDS011;64129;53.508;10.476;2023-02-20T05:47:10;9.90;;;5.75;;
75542;SDS011;64129;53.508;10.476;2023-02-20T05:49:37;10.23;;;6.35;;
75542;SDS011;64129;53.508;10.476;2023-02-20T05:52:04;8.70;;;5.28;;
75542;SDS011;64129;53.508;10.476;2023-02-20T05:54:38;9.73;;;5.07;;
75542;SDS011;64129;53.508;10.476;2023-02-20T05:57:05;7.90;;;4.97;;
75542;SDS011;64129;53.508;10.476;2023-02-20T05:59:32;9.30;;;5.35;;
75542;SDS011;64129;53.508;10.476;2023-02-20T06:01:58;9.18;;;5.63;;
75542;SDS011;64129;53.508;10.476;2023-02-20T06:04:26;11.85;;;6.85;;
75542;SDS011;64129;53.508;10.476;2023-02-20T06:06:53;9.43;;;4.72;;
75542;SDS011;64129;53.508;10.476;2023-02-20T06:09:20;8.88;;;4.93;;
75542;SDS011;64129;53.508;10.476;2023-02-20T06:11:47;12.00;;;6.22;;
75542;SDS011;64129;53.508;10.476;2023-02-20T06:14:16;8.40;;;5.00;;
75542;SDS011;64129;53.508;10.476;2023-02-20T06:16:46;7.45;;;4.80;;
75542;SDS011;64129;53.508;10.476;2023-02-20T06:19:19;12.05;;;6.07;;
75542;SDS011;64129;53.508;10.476;2023-02-20T06:21:48;12.82;;;6.00;;
75542;SDS011;64129;53.508;10.476;2023-02-20T06:24:15;10.63;;;5.47;;
75542;SDS011;64129;53.508;10.476;2023-02-20T06:26:43;11.77;;;5.97;;
75542;SDS011;64129;53.508;10.476;2023-02-20T06:29:10;9.35;;;5.43;;
75542;SDS011;64129;53.508;10.476;2023-02-20T06:31:38;9.65;;;5.00;;
75542;SDS011;64129;53.508;10.476;2023-02-20T06:34:05;10.02;;;5.90;;
75542;SDS011;64129;53.508;10.476;2023-02-20T06:36:34;12.27;;;5.43;;
75542;SDS011;64129;53.508;10.476;2023-02-20T06:39:03;13.80;;;6.55;;
75542;SDS011;64129;53.508;10.476;2023-02-20T06:41:31;9.40;;;5.82;;
75542;SDS011;64129;53.508;10.476;2023-02-20T06:43:58;9.30;;;5.32;;
75542;SDS011;64129;53.508;10.476;2023-02-20T06:46:24;9.57;;;4.85;;
75542;SDS011;64129;53.508;10.476;2023-02-20T06:48:52;10.20;;;5.78;;
75542;SDS011;64129;53.508;10.476;2023-02-20T06:51:22;11.52;;;6.72;;
75542;SDS011;64129;53.508;10.476;2023-02-20T06:53:52;12.30;;;7.13;;
75542;SDS011;64129;53.508;10.476;2023-02-20T06:56:19;13.65;;;4.97;;
75542;SDS011;64129;53.508;10.476;2023-02-20T06:58:48;9.50;;;5.68;;
75542;SDS011;64129;53.508;10.476;2023-02-20T07:01:17;8.80;;;5.35;;
75542;SDS011;64129;53.508;10.476;2023-02-20T07:03:45;11.32;;;6.80;;
75542;SDS011;64129;53.508;10.476;2023-02-20T07:06:14;10.73;;;6.43;;
75542;SDS011;64129;53.508;10.476;2023-02-20T07:08:41;13.00;;;6.38;;
75542;SDS011;64129;53.508;10.476;2023-02-20T07:11:08;13.48;;;6.82;;
75542;SDS011;64129;53.508;10.476;2023-02-20T07:13:35;13.93;;;7.72;;
75542;SDS011;64129;53.508;10.476;2023-02-20T07:16:01;13.55;;;7.78;;
75542;SDS011;64129;53.508;10.476;2023-02-20T07:18:28;12.57;;;6.75;;
75542;SDS011;64129;53.508;10.476;2023-02-20T07:20:55;11.32;;;6.90;;
75542;SDS011;64129;53.508;10.476;2023-02-20T07:23:22;13.57;;;8.45;;
75542;SDS011;64129;53.508;10.476;2023-02-20T07:25:48;11.75;;;8.05;;
75542;SDS011;64129;53.508;10.476;2023-02-20T07:28:16;14.48;;;8.90;;
75542;SDS011;64129;53.508;10.476;2023-02-20T07:30:44;13.50;;;8.90;;
75542;SDS011;64129;53.508;10.476;2023-02-20T07:33:14;17.02;;;9.85;;
75542;SDS011;64129;53.508;10.476;2023-02-20T07:35:42;16.05;;;10.15;;
75542;SDS011;64129;53.508;10.476;2023-02-20T07:38:09;14.45;;;9.13;;
75542;SDS011;64129;53.508;10.476;2023-02-20T07:40:36;9.73;;;7.05;;
75542;SDS011;64129;53.508;10.476;2023-02-20T07:43:05;16.42;;;10.25;;
75542;SDS011;64129;53.508;10.476;2023-02-20T07:45:36;16.20;;;10.07;;
75542;SDS011;64129;53.508;10.476;2023-02-20T07:50:30;14.30;;;9.82;;
75542;SDS011;64129;53.508;10.476;2023-02-20T07:52:57;16.05;;;10.68;;
75542;SDS011;64129;53.508;10.476;2023-02-20T07:55:23;16.67;;;10.50;;
75542;SDS011;64129;53.508;10.476;2023-02-20T07:57:50;20.45;;;12.70;;
75542;SDS011;64129;53.508;10.476;2023-02-20T08:00:19;16.42;;;10.52;;
75542;SDS011;64129;53.508;10.476;2023-02-20T08:02:47;21.98;;;12.38;;
75542;SDS011;64129;53.508;10.476;2023-02-20T08:05:13;16.60;;;10.10;;
75542;SDS011;64129;53.508;10.476;2023-02-20T08:07:44;16.70;;;10.75;;
75542;SDS011;64129;53.508;10.476;2023-02-20T08:10:12;9.50;;;7.97;;
75542;SDS011;64129;53.508;10.476;2023-02-20T08:12:39;18.08;;;12.18;;
75542;SDS011;64129;53.508;10.476;2023-02-20T08:15:06;18.27;;;13.23;;
75542;SDS011;64129;53.508;10.476;2023-02-20T08:17:35;19.48;;;12.38;;
75542;SDS011;64129;53.508;10.476;2023-02-20T08:20:11;19.52;;;11.45;;
75542;SDS011;64129;53.508;10.476;2023-02-20T08:22:39;22.75;;;13.82;;
75542;SDS011;64129;53.508;10.476;2023-02-20T08:25:07;22.13;;;14.25;;
75542;SDS011;64129;53.508;10.476;2023-02-20T08:27:34;23.20;;;14.13;;
75542;SDS011;64129;53.508;10.476;2023-02-20T08:30:04;16.60;;;10.88;;
75542;SDS011;64129;53.508;10.476;2023-02-20T08:32:32;18.23;;;11.73;;
75542;SDS011;64129;53.508;10.476;2023-02-20T08:34:58;22.67;;;14.30;;
75542;SDS011;64129;53.508;10.476;2023-02-20T08:37:25;20.95;;;13.10;;
75542;SDS011;64129;53.508;10.476;2023-02-20T08:39:51;17.77;;;11.25;;
75542;SDS011;64129;53.508;10.476;2023-02-20T08:42:18;24.60;;;15.77;;
75542;SDS011;64129;53.508;10.476;2023-02-20T08:44:44;17.45;;;11.32;;
75542;SDS011;64129;53.508;10.476;2023-02-20T08:47:11;15.82;;;10.25;;
75542;SDS011;64129;53.508;10.476;2023-02-20T08:49:37;17.40;;;9.95;;
75542;SDS011;64129;53.508;10.476;2023-02-20T08:52:04;21.42;;;12.02;;
75542;SDS011;64129;53.508;10.476;2023-02-20T08:54:31;24.98;;;15.15;;
75542;SDS011;64129;53.508;10.476;2023-02-20T08:56:57;20.77;;;14.05;;
75542;SDS011;64129;53.508;10.476;2023-02-20T08:59:24;18.02;;;11.55;;
75542;SDS011;64129;53.508;10.476;2023-02-20T09:01:50;18.77;;;12.68;;
75542;SDS011;64129;53.508;10.476;2023-02-20T09:04:17;15.27;;;11.52;;
75542;SDS011;64129;53.508;10.476;2023-02-20T09:06:45;22.38;;;12.95;;
75542;SDS011;64129;53.508;10.476;2023-02-20T09:09:12;20.30;;;11.40;;
75542;SDS011;64129;53.508;10.476;2023-02-20T09:11:38;18.83;;;12.57;;
75542;SDS011;64129;53.508;10.476;2023-02-20T09:14:05;20.83;;;11.77;;
75542;SDS011;64129;53.508;10.476;2023-02-20T09:16:31;20.50;;;12.40;;
75542;SDS011;64129;53.508;10.476;2023-02-20T09:18:58;28.38;;;16.52;;
75542;SDS011;64129;53.508;10.476;2023-02-20T09:21:25;27.00;;;17.33;;
75542;SDS011;64129;53.508;10.476;2023-02-20T09:23:54;21.73;;;13.25;;
75542;SDS011;64129;53.508;10.476;2023-02-20T09:26:20;24.27;;;13.45;;
75542;SDS011;64129;53.508;10.476;2023-02-20T09:28:47;25.23;;;15.35;;
75542;SDS011;64129;53.508;10.476;2023-02-20T09:31:13;23.23;;;14.57;;
75542;SDS011;64129;53.508;10.476;2023-02-20T09:33:43;27.73;;;13.52;;
75542;SDS011;64129;53.508;10.476;2023-02-20T09:36:16;21.60;;;13.48;;
75542;SDS011;64129;53.508;10.476;2023-02-20T09:38:42;26.48;;;14.98;;
75542;SDS011;64129;53.508;10.476;2023-02-20T09:41:11;25.30;;;16.23;;
75542;SDS011;64129;53.508;10.476;2023-02-20T09:46:16;35.60;;;18.33;;
75542;SDS011;64129;53.508;10.476;2023-02-20T09:48:48;30.45;;;16.55;;
75542;SDS011;64129;53.508;10.476;2023-02-20T09:51:20;35.72;;;18.33;;
75542;SDS011;64129;53.508;10.476;2023-02-20T09:56:42;26.27;;;14.13;;
75542;SDS011;64129;53.508;10.476;2023-02-20T10:05:00;37.63;;;16.40;;
75542;SDS011;64129;53.508;10.476;2023-02-20T10:07:31;22.35;;;12.10;;
75542;SDS011;64129;53.508;10.476;2023-02-20T10:10:01;20.33;;;10.15;;
75542;SDS011;64129;53.508;10.476;2023-02-20T10:24:28;26.45;;;15.13;;
75542;SDS011;64129;53.508;10.476;2023-02-20T10:27:43;30.05;;;16.48;;
75542;SDS011;64129;53.508;10.476;2023-02-20T10:29:48;24.77;;;11.48;;
75542;SDS011;64129;53.508;10.476;2023-02-20T10:32:27;23.27;;;11.02;;
75542;SDS011;64129;53.508;10.476;2023-02-20T10:35:11;38.03;;;17.08;;
75542;SDS011;64129;53.508;10.476;2023-02-20T10:38:01;19.67;;;10.77;;
75542;SDS011;64129;53.508;10.476;2023-02-20T10:40:40;37.00;;;15.95;;
75542;SDS011;64129;53.508;10.476;2023-02-20T10:43:36;20.10;;;10.55;;
75542;SDS011;64129;53.508;10.476;2023-02-20T10:46:19;26.27;;;12.55;;
75542;SDS011;64129;53.508;10.476;2023-02-20T10:49:06;24.10;;;12.63;;
75542;SDS011;64129;53.508;10.476;2023-02-20T10:51:42;25.52;;;12.13;;
75542;SDS011;64129;53.508;10.476;2023-02-20T10:54:12;28.73;;;14.48;;
75542;SDS011;64129;53.508;10.476;2023-02-20T11:02:04;15.00;;;9.40;;
75542;SDS011;64129;53.508;10.476;2023-02-20T11:04:38;25.00;;;14.10;;
75542;SDS011;64129;53.508;10.476;2023-02-20T11:07:09;21.92;;;10.93;;
75542;SDS011;64129;53.508;10.476;2023-02-20T11:09:39;25.88;;;13.38;;
75542;SDS011;64129;53.508;10.476;2023-02-20T11:12:07;26.45;;;13.98;;
75542;SDS011;64129;53.508;10.476;2023-02-20T11:14:47;23.48;;;12.50;;
75542;SDS011;64129;53.508;10.476;2023-02-20T11:17:16;25.58;;;12.48;;
75542;SDS011;64129;53.508;10.476;2023-02-20T11:19:49;18.80;;;11.55;;
75542;SDS011;64129;53.508;10.476;2023-02-20T11:22:37;30.40;;;14.55;;
75542;SDS011;64129;53.508;10.476;2023-02-20T11:25:17;23.45;;;13.68;;
75542;SDS011;64129;53.508;10.476;2023-02-20T11:27:52;16.63;;;10.57;;
75542;SDS011;64129;53.508;10.476;2023-02-20T11:32:58;21.23;;;11.65;;
75542;SDS011;64129;53.508;10.476;2023-02-20T11:35:29;17.15;;;8.50;;
75542;SDS011;64129;53.508;10.476;2023-02-20T11:40:40;16.25;;;9.60;;
75542;SDS011;64129;53.508;10.476;2023-02-20T11:43:25;17.05;;;8.05;;
75542;SDS011;64129;53.508;10.476;2023-02-20T11:49:00;19.40;;;8.82;;
75542;SDS011;64129;53.508;10.476;2023-02-20T11:51:38;13.25;;;8.13;;
75542;SDS011;64129;53.508;10.476;2023-02-20T11:59:38;8.85;;;4.97;;
75542;SDS011;64129;53.508;10.476;2023-02-20T12:02:25;10.52;;;6.90;;
75542;SDS011;64129;53.508;10.476;2023-02-20T12:05:00;9.13;;;6.40;;
75542;SDS011;64129;53.508;10.476;2023-02-20T12:07:37;9.98;;;6.72;;
75542;SDS011;64129;53.508;10.476;2023-02-20T12:12:51;11.68;;;6.18;;
75542;SDS011;64129;53.508;10.476;2023-02-20T12:15:20;10.50;;;6.18;;
75542;SDS011;64129;53.508;10.476;2023-02-20T12:20:30;6.15;;;4.05;;
75542;SDS011;64129;53.508;10.476;2023-02-20T12:26:18;6.25;;;4.10;;
75542;SDS011;64129;53.508;10.476;2023-02-20T12:28:37;8.18;;;3.97;;
75542;SDS011;64129;53.508;10.476;2023-02-20T12:36:40;11.60;;;4.22;;
75542;SDS011;64129;53.508;10.476;2023-02-20T12:39:16;11.90;;;3.95;;
75542;SDS011;64129;53.508;10.476;2023-02-20T12:42:09;5.28;;;3.60;;
75542;SDS011;64129;53.508;10.476;2023-02-20T12:44:56;6.57;;;3.28;;
75542;SDS011;64129;53.508;10.476;2023-02-20T12:47:38;4.32;;;3.17;;
75542;SDS011;64129;53.508;10.476;2023-02-20T13:01:21;6.20;;;2.63;;
75542;SDS011;64129;53.508;10.476;2023-02-20T13:07:01;6.22;;;2.95;;
75542;SDS011;64129;53.508;10.476;2023-02-20T13:09:32;5.13;;;2.63;;
75542;SDS011;64129;53.508;10.476;2023-02-20T13:12:01;4.22;;;2.90;;
75542;SDS011;64129;53.508;10.476;2023-02-20T13:17:17;6.53;;;3.22;;
75542;SDS011;64129;53.508;10.476;2023-02-20T13:23:01;4.13;;;2.70;;
75542;SDS011;64129;53.508;10.476;2023-02-20T13:25:52;5.28;;;3.22;;
75542;SDS011;64129;53.508;10.476;2023-02-20T13:31:38;3.90;;;2.05;;
75542;SDS011;64129;53.508;10.476;2023-02-20T13:33:40;8.40;;;3.38;;
75542;SDS011;64129;53.508;10.476;2023-02-20T13:36:14;5.47;;;3.42;;
75542;SDS011;64129;53.508;10.476;2023-02-20T13:39:24;7.80;;;3.80;;
75542;SDS011;64129;53.508;10.476;2023-02-20T13:42:00;5.20;;;2.58;;
75542;SDS011;64129;53.508;10.476;2023-02-20T13:44:38;5.18;;;2.42;;
75542;SDS011;64129;53.508;10.476;2023-02-20T13:49:53;9.48;;;5.00;;
75542;SDS011;64129;53.508;10.476;2023-02-20T13:52:40;5.75;;;3.67;;
75542;SDS011;64129;53.508;10.476;2023-02-20T14:00:27;7.30;;;3.97;;
75542;SDS011;64129;53.508;10.476;2023-02-20T14:03:25;8.18;;;4.60;;
75542;SDS011;64129;53.508;10.476;2023-02-20T14:08:40;7.00;;;3.60;;
75542;SDS011;64129;53.508;10.476;2023-02-20T14:13:48;8.38;;;4.20;;
75542;SDS011;64129;53.508;10.476;2023-02-20T14:16:23;7.93;;;3.20;;
75542;SDS011;64129;53.508;10.476;2023-02-20T14:18:51;4.85;;;2.83;;
75542;SDS011;64129;53.508;10.476;2023-02-20T14:21:22;7.05;;;3.75;;
75542;SDS011;64129;53.508;10.476;2023-02-20T14:23:50;7.47;;;3.30;;
75542;SDS011;64129;53.508;10.476;2023-02-20T14:28:54;8.32;;;4.03;;
75542;SDS011;64129;53.508;10.476;2023-02-20T14:31:23;6.60;;;3.42;;
75542;SDS011;64129;53.508;10.476;2023-02-20T14:33:56;11.90;;;3.65;;
75542;SDS011;64129;53.508;10.476;2023-02-20T14:39:21;8.43;;;3.95;;
75542;SDS011;64129;53.508;10.476;2023-02-20T14:41:57;6.95;;;3.78;;
75542;SDS011;64129;53.508;10.476;2023-02-20T14:44:25;9.82;;;4.47;;
75542;SDS011;64129;53.508;10.476;2023-02-20T14:46:54;5.72;;;3.47;;
75542;SDS011;64129;53.508;10.476;2023-02-20T14:49:27;6.53;;;3.17;;
75542;SDS011;64129;53.508;10.476;2023-02-20T14:54:35;9.55;;;5.45;;
75542;SDS011;64129;53.508;10.476;2023-02-20T14:57:22;10.60;;;4.75;;
75542;SDS011;64129;53.508;10.476;2023-02-20T14:59:48;4.88;;;3.35;;
75542;SDS011;64129;53.508;10.476;2023-02-20T15:05:03;8.88;;;4.40;;
75542;SDS011;64129;53.508;10.476;2023-02-20T15:07:33;10.15;;;4.97;;
75542;SDS011;64129;53.508;10.476;2023-02-20T15:10:04;10.45;;;4.32;;
75542;SDS011;64129;53.508;10.476;2023-02-20T15:12:35;9.32;;;5.00;;
75542;SDS011;64129;53.508;10.476;2023-02-20T15:17:33;5.07;;;3.08;;
75542;SDS011;64129;53.508;10.476;2023-02-20T15:25:41;12.32;;;5.47;;
75542;SDS011;64129;53.508;10.476;2023-02-20T15:28:10;9.90;;;4.82;;
75542;SDS011;64129;53.508;10.476;2023-02-20T15:33:52;8.52;;;3.58;;
75542;SDS011;64129;53.508;10.476;2023-02-20T15:36:21;8.80;;;3.90;;
75542;SDS011;64129;53.508;10.476;2023-02-20T15:38:51;6.10;;;2.95;;
75542;SDS011;64129;53.508;10.476;2023-02-20T15:41:20;6.63;;;3.90;;
75542;SDS011;64129;53.508;10.476;2023-02-20T15:43:48;8.15;;;3.88;;
75542;SDS011;64129;53.508;10.476;2023-02-20T15:46:17;10.95;;;3.90;;
75542;SDS011;64129;53.508;10.476;2023-02-20T15:51:18;4.85;;;3.28;;
75542;SDS011;64129;53.508;10.476;2023-02-20T15:53:46;9.75;;;4.63;;
75542;SDS011;64129;53.508;10.476;2023-02-20T15:56:13;10.02;;;4.00;;
75542;SDS011;64129;53.508;10.476;2023-02-20T15:58:41;7.47;;;3.97;;
75542;SDS011;64129;53.508;10.476;2023-02-20T16:01:08;6.30;;;3.35;;
75542;SDS011;64129;53.508;10.476;2023-02-20T16:06:15;10.05;;;4.22;;
75542;SDS011;64129;53.508;10.476;2023-02-20T16:08:42;7.90;;;4.13;;
75542;SDS011;64129;53.508;10.476;2023-02-20T16:11:10;9.48;;;5.38;;
75542;SDS011;64129;53.508;10.476;2023-02-20T16:13:37;6.90;;;4.25;;
75542;SDS011;64129;53.508;10.476;2023-02-20T16:16:11;9.35;;;4.07;;
75542;SDS011;64129;53.508;10.476;2023-02-20T16:18:49;10.40;;;4.85;;
75542;SDS011;64129;53.508;10.476;2023-02-20T16:23:45;9.85;;;4.78;;
75542;SDS011;64129;53.508;10.476;2023-02-20T16:26:20;11.57;;;5.20;;
75542;SDS011;64129;53.508;10.476;2023-02-20T16:28:58;7.47;;;4.13;;
75542;SDS011;64129;53.508;10.476;2023-02-20T16:34:32;6.43;;;4.63;;
75542;SDS011;64129;53.508;10.476;2023-02-20T16:36:59;11.48;;;6.25;;
75542;SDS011;64129;53.508;10.476;2023-02-20T16:41:54;5.30;;;4.05;;
75542;SDS011;64129;53.508;10.476;2023-02-20T16:44:31;11.60;;;6.10;;
75542;SDS011;64129;53.508;10.476;2023-02-20T16:47:13;9.77;;;5.68;;
75542;SDS011;64129;53.508;10.476;2023-02-20T16:49:44;7.13;;;4.00;;
75542;SDS011;64129;53.508;10.476;2023-02-20T16:52:15;5.88;;;4.05;;
75542;SDS011;64129;53.508;10.476;2023-02-20T16:54:55;8.18;;;6.03;;
75542;SDS011;64129;53.508;10.476;2023-02-20T16:57:23;6.03;;;3.10;;
75542;SDS011;64129;53.508;10.476;2023-02-20T16:59:51;3.95;;;3.00;;
75542;SDS011;64129;53.508;10.476;2023-02-20T17:02:22;8.85;;;5.90;;
75542;SDS011;64129;53.508;10.476;2023-02-20T17:04:51;7.63;;;4.80;;
75542;SDS011;64129;53.508;10.476;2023-02-20T17:07:18;10.25;;;4.82;;
75542;SDS011;64129;53.508;10.476;2023-02-20T17:09:45;6.25;;;4.00;;
75542;SDS011;64129;53.508;10.476;2023-02-20T17:12:13;4.53;;;4.13;;
75542;SDS011;64129;53.508;10.476;2023-02-20T17:14:41;9.50;;;5.38;;
75542;SDS011;64129;53.508;10.476;2023-02-20T17:17:08;3.78;;;3.03;;
75542;SDS011;64129;53.508;10.476;2023-02-20T17:19:36;5.65;;;4.60;;
75542;SDS011;64129;53.508;10.476;2023-02-20T17:22:07;7.22;;;5.45;;
75542;SDS011;64129;53.508;10.476;2023-02-20T17:24:34;6.75;;;5.05;;